Time;durP1;ratioP1;P1;durP2;ratioP2;P2;SDS_P1;SDS_P2;PMS_P1;PMS_P2;Temp;Humidity;BMP_temperature;BMP_pressure;BME280_temperature;BME280_humidity;BME280_pressure;Samples;Min_cycle;Max_cycle;Signal;HPM_P1;HPM_P2
2024/01/15 00:01:58;;;;;;;0.40;0.40;;;;;;;-0.08;100.00;100263.88;5094502;28;20391;-56
2024/01/15 00:04:24;;;;;;;0.50;0.50;;;;;;;-0.10;100.00;100258.72;5094272;28;20050;-56
2024/01/15 00:06:50;;;;;;;0.50;0.50;;;;;;;-0.13;100.00;100245.88;5093950;28;20040;-56
2024/01/15 00:09:15;;;;;;;0.40;0.40;;;;;;;-0.14;100.00;100259.31;5094087;28;20386;-56
2024/01/15 00:11:41;;;;;;;0.50;0.50;;;;;;;-0.18;100.00;100252.31;5093950;28;20020;-56
2024/01/15 00:14:06;;;;;;;0.50;0.50;;;;;;;-0.21;100.00;100252.09;5094622;28;20077;-56
2024/01/15 00:16:31;;;;;;;0.50;0.50;;;;;;;-0.26;100.00;100245.84;5094254;28;20483;-56
2024/01/15 00:18:56;;;;;;;0.43;0.43;;;;;;;-0.26;100.00;100238.25;5093725;28;20036;-56
2024/01/15 00:21:23;;;;;;;0.60;0.60;;;;;;;-0.28;100.00;100239.84;5094229;28;20024;-56
2024/01/15 00:23:48;;;;;;;0.50;0.50;;;;;;;-0.34;100.00;100247.91;5094228;28;20497;-56
2024/01/15 00:26:13;;;;;;;0.50;0.50;;;;;;;-0.41;100.00;100248.31;5093234;28;20123;-56
2024/01/15 00:28:39;;;;;;;0.50;0.50;;;;;;;-0.43;100.00;100234.66;5094294;28;20020;-56
2024/01/15 00:31:05;;;;;;;0.50;0.50;;;;;;;-0.48;100.00;100230.97;5094183;28;20423;-56
2024/01/15 00:33:30;;;;;;;0.60;0.60;;;;;;;-0.50;100.00;100238.47;5093205;28;20030;-56
2024/01/15 00:35:56;;;;;;;0.40;0.40;;;;;;;-0.53;100.00;100236.63;5093963;28;20028;-56
2024/01/15 00:38:21;;;;;;;0.50;0.50;;;;;;;-0.48;100.00;100236.03;5093495;28;20054;-56
2024/01/15 00:40:46;;;;;;;0.50;0.50;;;;;;;-0.52;100.00;100224.81;5092964;28;20082;-56
2024/01/15 00:43:12;;;;;;;0.60;0.60;;;;;;;-0.56;100.00;100220.34;5093775;28;20028;-56
2024/01/15 00:45:37;;;;;;;0.57;0.57;;;;;;;-0.62;100.00;100209.81;5093668;28;20119;-56
2024/01/15 00:48:03;;;;;;;0.38;0.38;;;;;;;-0.64;100.00;100214.78;5092995;28;20035;-55
2024/01/15 00:50:29;;;;;;;0.55;0.55;;;;;;;-0.71;100.00;100218.59;5093495;28;20046;-56
2024/01/15 00:52:54;;;;;;;0.60;0.60;;;;;;;-0.75;100.00;100211.59;5093620;28;20017;-56
2024/01/15 00:55:19;;;;;;;0.60;0.60;;;;;;;-0.77;100.00;100210.59;5092666;28;20364;-56
2024/01/15 00:57:45;;;;;;;0.60;0.60;;;;;;;-0.80;100.00;100201.94;5093488;28;20020;-56
2024/01/15 01:00:11;;;;;;;0.50;0.50;;;;;;;-0.80;100.00;100202.81;5093386;28;20069;-56
2024/01/15 01:02:36;;;;;;;0.50;0.50;;;;;;;-0.80;100.00;100201.94;5092845;28;20384;-56
2024/01/15 01:05:03;;;;;;;0.50;0.50;;;;;;;-0.78;100.00;100208.84;5093517;28;20024;-58
2024/01/15 01:07:28;;;;;;;0.50;0.50;;;;;;;-0.80;100.00;100207.88;5093219;28;20049;-58
2024/01/15 01:09:53;;;;;;;0.60;0.60;;;;;;;-0.78;100.00;100201.25;5092892;28;20492;-58
2024/01/15 01:12:19;;;;;;;0.60;0.60;;;;;;;-0.78;100.00;100200.38;5093180;28;20031;-58
2024/01/15 01:14:44;;;;;;;0.60;0.60;;;;;;;-0.72;100.00;100203.31;5093504;28;20039;-56
2024/01/15 01:17:09;;;;;;;0.50;0.50;;;;;;;-0.75;100.00;100204.00;5092306;28;20057;-56
2024/01/15 01:19:35;;;;;;;0.60;0.60;;;;;;;-0.78;100.00;100196.19;5093486;28;20020;-56
2024/01/15 01:22:00;;;;;;;0.55;0.55;;;;;;;-0.79;100.00;100191.03;5092449;28;20413;-56
2024/01/15 01:24:25;;;;;;;0.50;0.50;;;;;;;-0.81;100.00;100183.34;5093025;28;20028;-56
2024/01/15 01:26:51;;;;;;;0.50;0.50;;;;;;;-0.82;100.00;100186.66;5093133;28;20034;-56
2024/01/15 01:29:16;;;;;;;0.50;0.50;;;;;;;-0.82;100.00;100189.19;5092130;28;20119;-56
2024/01/15 01:31:44;;;;;;;0.50;0.50;;;;;;;-0.89;100.00;100192.09;5092851;28;20022;-56
2024/01/15 01:34:10;;;;;;;0.60;0.60;;;;;;;-0.90;100.00;100188.69;5092850;28;20020;-56
2024/01/15 01:36:36;;;;;;;0.60;0.60;;;;;;;-0.94;100.00;100193.44;5091775;28;20024;-56
2024/01/15 01:39:01;;;;;;;0.68;0.68;;;;;;;-0.93;100.00;100192.66;5093234;28;20028;-56
2024/01/15 01:41:26;;;;;;;0.60;0.60;;;;;;;-0.92;100.00;100191.91;5092606;28;20489;-56
2024/01/15 01:43:51;;;;;;;0.57;0.57;;;;;;;-0.96;100.00;100190.81;5092375;28;20111;-58
2024/01/15 01:46:17;;;;;;;0.40;0.40;;;;;;;-0.96;100.00;100195.00;5092799;28;20356;-58
2024/01/15 01:48:43;;;;;;;0.50;0.50;;;;;;;-0.96;100.00;100200.06;5092979;28;20034;-59
2024/01/15 01:51:10;;;;;;;0.50;0.50;;;;;;;-0.97;100.00;100205.91;5092033;28;20027;-58
2024/01/15 01:53:37;;;;;;;0.50;0.50;;;;;;;-1.01;100.00;100203.19;5092831;28;20456;-58
2024/01/15 01:56:03;;;;;;;;;;;;;;;-0.94;100.00;100201.03;5093471;28;20114;-58
2024/01/15 01:58:30;;;;;;;0.60;0.60;;;;;;;-0.96;100.00;100195.88;5091848;28;19958;-58
2024/01/15 02:00:56;;;;;;;0.50;0.50;;;;;;;-1.02;100.00;100206.47;5092932;28;20020;-58
2024/01/15 02:03:21;;;;;;;0.40;0.40;;;;;;;-1.01;100.00;100198.13;5092311;28;20043;-58
2024/01/15 02:05:48;;;;;;;0.40;0.40;;;;;;;-1.02;100.00;100198.00;5091893;28;20114;-58
2024/01/15 02:08:14;;;;;;;0.70;0.70;;;;;;;-1.02;100.00;100196.38;5094806;28;20468;-58
2024/01/15 02:10:39;;;;;;;0.57;0.57;;;;;;;-1.00;100.00;100194.78;5097203;28;20028;-56
2024/01/15 02:13:05;;;;;;;0.50;0.50;;;;;;;-0.94;100.00;100184.22;5096200;28;20037;-58
2024/01/15 02:15:30;;;;;;;0.55;0.55;;;;;;;-0.94;100.00;100193.44;5096633;28;20491;-58
2024/01/15 02:18:03;;;;;;;0.40;0.40;;;;;;;-0.96;100.00;100189.94;5096894;28;20020;-58
2024/01/15 02:20:30;;;;;;;0.50;0.50;;;;;;;-1.01;100.00;100188.00;5095460;28;20032;-58
2024/01/15 02:23:07;;;;;;;0.50;0.50;;;;;;;-1.01;100.00;100193.06;5096902;28;20039;-56
2024/01/15 02:25:32;;;;;;;0.50;0.50;;;;;;;-1.02;100.00;100186.25;5095401;28;20490;-56
2024/01/15 02:27:58;;;;;;;0.55;0.55;;;;;;;-1.03;100.00;100179.44;5096645;28;20024;-56
2024/01/15 02:30:25;;;;;;;0.50;0.50;;;;;;;-1.03;100.00;100184.50;5096233;28;20028;-56
2024/01/15 02:32:50;;;;;;;0.68;0.68;;;;;;;-1.05;100.00;100180.97;5095606;28;20025;-56
2024/01/15 02:35:16;;;;;;;0.50;0.50;;;;;;;-1.06;100.00;100178.34;5095715;28;20169;-56
2024/01/15 02:37:41;;;;;;;0.50;0.50;;;;;;;-1.10;100.00;100189.03;5096498;28;20036;-56
2024/01/15 02:40:07;;;;;;;0.60;0.60;;;;;;;-1.14;100.00;100179.50;5095455;28;20480;-56
2024/01/15 02:42:32;;;;;;;0.60;0.60;;;;;;;-1.19;100.00;100184.25;5096095;28;20024;-56
2024/01/15 02:44:58;;;;;;;0.50;0.50;;;;;;;-1.14;100.00;100180.38;5096241;28;20032;-56
2024/01/15 02:47:23;;;;;;;0.57;0.57;;;;;;;-1.19;100.00;100181.72;5095123;28;20027;-56
2024/01/15 02:49:48;;;;;;;0.50;0.50;;;;;;;-1.19;100.00;100181.72;5096030;28;20047;-58
2024/01/15 02:52:13;;;;;;;0.50;0.50;;;;;;;-1.14;100.00;100182.91;5095919;28;20026;-59
2024/01/15 02:54:39;;;;;;;0.60;0.60;;;;;;;-1.16;100.00;100176.88;5095451;28;20384;-58
2024/01/15 02:57:04;;;;;;;0.60;0.60;;;;;;;-1.17;100.00;100180.19;5095928;28;20111;-57
2024/01/15 02:59:29;;;;;;;0.50;0.50;;;;;;;-1.15;100.00;100178.63;5095693;28;20468;-58
2024/01/15 03:01:55;;;;;;;0.50;0.50;;;;;;;-1.15;100.00;100188.72;5095124;28;20024;-58
2024/01/15 03:04:20;;;;;;;0.60;0.60;;;;;;;-1.12;100.00;100180.47;5095440;28;20407;-58
2024/01/15 03:06:45;;;;;;;0.60;0.60;;;;;;;-1.11;100.00;100193.22;5096035;28;20050;-56
2024/01/15 03:09:10;;;;;;;0.60;0.60;;;;;;;-1.14;100.00;100185.44;5094746;28;20476;-56
2024/01/15 03:11:39;;;;;;;0.60;0.60;;;;;;;-1.11;100.00;100187.28;5095879;28;20039;-58
2024/01/15 03:14:04;;;;;;;0.52;0.52;;;;;;;-1.13;100.00;100189.72;5095740;28;20030;-58
2024/01/15 03:16:30;;;;;;;0.50;0.50;;;;;;;-1.16;100.00;100181.94;5094833;28;20099;-56
2024/01/15 03:18:55;;;;;;;0.50;0.50;;;;;;;-1.12;100.00;100188.06;5094785;28;20039;-56
2024/01/15 03:21:20;;;;;;;0.50;0.50;;;;;;;-1.13;100.00;100178.75;5095815;28;20490;-56
2024/01/15 03:23:45;;;;;;;0.60;0.60;;;;;;;-1.15;100.00;100178.63;5094936;28;20035;-56
2024/01/15 03:26:11;;;;;;;0.60;0.60;;;;;;;-1.14;100.00;100182.91;5095128;28;20039;-56
2024/01/15 03:28:36;;;;;;;0.50;0.50;;;;;;;-1.12;100.00;100183.88;5094719;28;20498;-57
2024/01/15 03:31:02;;;;;;;0.50;0.50;;;;;;;-1.12;100.00;100178.84;5095177;28;20058;-58
2024/01/15 03:33:27;;;;;;;0.60;0.60;;;;;;;-1.12;100.00;100178.84;5094942;28;20024;-58
2024/01/15 03:35:52;;;;;;;0.50;0.50;;;;;;;-1.13;100.00;100172.03;5094607;28;20028;-58
2024/01/15 03:38:18;;;;;;;0.60;0.60;;;;;;;-1.10;100.00;100172.19;5095026;28;20518;-59
2024/01/15 03:40:43;;;;;;;0.60;0.60;;;;;;;-1.13;100.00;100166.97;5094912;28;20059;-58
2024/01/15 03:43:08;;;;;;;0.60;0.60;;;;;;;-1.12;100.00;100171.25;5094475;28;20024;-58
2024/01/15 03:45:34;;;;;;;0.50;0.50;;;;;;;-1.13;100.00;100171.16;5094686;28;20069;-58
2024/01/15 03:47:59;;;;;;;0.50;0.50;;;;;;;-1.12;100.00;100177.94;5094861;28;20361;-58
2024/01/15 03:50:25;;;;;;;0.60;0.60;;;;;;;-1.16;100.00;100167.63;5093884;28;20024;-58
2024/01/15 03:52:50;;;;;;;0.50;0.50;;;;;;;-1.15;100.00;100173.56;5095055;28;20020;-59
2024/01/15 03:55:15;;;;;;;0.60;0.60;;;;;;;-1.10;100.00;100167.16;5094639;28;20024;-58
2024/01/15 03:57:40;;;;;;;0.60;0.60;;;;;;;-1.08;100.00;100159.69;5094346;28;20073;-58
2024/01/15 04:00:07;;;;;;;0.50;0.50;;;;;;;-1.06;100.00;100164.06;5094524;28;20384;-58
2024/01/15 04:02:32;;;;;;;0.60;0.60;;;;;;;-1.03;100.00;100159.19;5094262;28;20479;-58
2024/01/15 04:04:58;;;;;;;0.50;0.50;;;;;;;-1.00;100.00;100149.25;5094061;28;20028;-58
2024/01/15 04:07:23;;;;;;;0.50;0.50;;;;;;;-0.96;100.00;100145.28;5094246;28;20016;-59
2024/01/15 04:09:48;;;;;;;0.63;0.63;;;;;;;-0.96;100.00;100150.34;5094723;28;20061;-58
2024/01/15 04:12:13;;;;;;;0.50;0.50;;;;;;;-0.95;100.00;100136.06;5093526;28;20028;-58
2024/01/15 04:14:39;;;;;;;0.43;0.43;;;;;;;-0.91;100.00;100135.47;5094474;28;20484;-58
2024/01/15 04:17:04;;;;;;;0.50;0.50;;;;;;;-0.87;100.00;100127.28;5094351;28;20032;-58
2024/01/15 04:19:29;;;;;;;0.60;0.60;;;;;;;-0.84;100.00;100130.00;5093614;28;20020;-58
2024/01/15 04:21:55;;;;;;;0.70;0.70;;;;;;;-0.79;100.00;100133.72;5094551;28;20028;-56
2024/01/15 04:24:20;;;;;;;0.60;0.60;;;;;;;-0.75;100.00;100128.09;5094129;28;20101;-56
2024/01/15 04:26:45;;;;;;;0.50;0.50;;;;;;;-0.73;100.00;100139.16;5093562;28;20024;-56
2024/01/15 04:29:11;;;;;;;0.60;0.60;;;;;;;-0.72;100.00;100138.38;5093799;28;20024;-56
2024/01/15 04:31:36;;;;;;;0.52;0.52;;;;;;;-0.67;100.00;100139.56;5093127;28;20043;-56
2024/01/15 04:34:01;;;;;;;0.60;0.60;;;;;;;-0.64;100.00;100143.94;5093560;28;20026;-56
2024/01/15 04:36:26;;;;;;;0.50;0.50;;;;;;;-0.61;100.00;100138.19;5093731;28;20094;-56
2024/01/15 04:38:52;;;;;;;0.60;0.60;;;;;;;-0.61;100.00;100135.66;5093453;28;20020;-56
2024/01/15 04:41:17;;;;;;;0.60;0.60;;;;;;;-0.60;100.00;100124.75;5094391;28;20048;-56
2024/01/15 04:43:42;;;;;;;0.60;0.60;;;;;;;-0.60;100.00;100129.81;5094170;28;20028;-56
2024/01/15 04:46:08;;;;;;;0.50;0.50;;;;;;;-0.62;100.00;100111.13;5092978;28;20024;-56
2024/01/15 04:48:33;;;;;;;0.60;0.60;;;;;;;-0.64;100.00;100112.69;5093753;28;20035;-56
2024/01/15 04:50:59;;;;;;;0.60;0.60;;;;;;;-0.67;100.00;100109.19;5093941;28;20016;-57
2024/01/15 04:53:25;;;;;;;0.60;0.60;;;;;;;-0.69;100.00;100115.78;5092793;28;20417;-58
2024/01/15 04:55:50;;;;;;;0.60;0.60;;;;;;;-0.70;100.00;100113.16;5093774;28;20020;-58
2024/01/15 04:58:15;;;;;;;0.60;0.60;;;;;;;-0.73;100.00;100118.91;5093381;28;20024;-58
2024/01/15 05:00:40;;;;;;;0.60;0.60;;;;;;;-0.74;100.00;100124.75;5093012;28;20028;-58
2024/01/15 05:03:06;;;;;;;0.60;0.60;;;;;;;-0.76;100.00;100128.84;5093675;28;20488;-56
2024/01/15 05:05:31;;;;;;;0.60;0.60;;;;;;;-0.79;100.00;100123.59;5093461;28;20036;-56
2024/01/15 05:07:56;;;;;;;0.50;0.50;;;;;;;-0.80;100.00;100121.84;5092897;28;20063;-56
2024/01/15 05:10:21;;;;;;;0.50;0.50;;;;;;;-0.80;100.00;100114.28;5093113;28;20042;-56
2024/01/15 05:12:47;;;;;;;0.50;0.50;;;;;;;-0.80;100.00;100109.22;5093453;28;20019;-56
2024/01/15 05:15:12;;;;;;;0.57;0.57;;;;;;;-0.81;100.00;100107.44;5092459;28;20063;-58
2024/01/15 05:17:37;;;;;;;0.50;0.50;;;;;;;-0.78;100.00;100110.16;5093359;28;20537;-58
2024/01/15 05:20:04;;;;;;;0.52;0.52;;;;;;;-0.75;100.00;100109.47;5093585;28;20043;-58
2024/01/15 05:22:29;;;;;;;0.50;0.50;;;;;;;-0.73;100.00;100108.78;5092190;28;20487;-59
2024/01/15 05:24:54;;;;;;;0.50;0.50;;;;;;;-0.72;100.00;100102.09;5093273;28;20072;-58
2024/01/15 05:27:20;;;;;;;0.50;0.50;;;;;;;-0.74;100.00;100103.66;5092766;28;20028;-56
2024/01/15 05:29:45;;;;;;;0.50;0.50;;;;;;;-0.73;100.00;100100.34;5092553;28;20024;-56
2024/01/15 05:32:10;;;;;;;0.60;0.60;;;;;;;-0.75;100.00;100114.53;5092762;28;20020;-56
2024/01/15 05:34:36;;;;;;;0.60;0.60;;;;;;;-0.77;100.00;100106.84;5093225;28;20035;-56
2024/01/15 05:37:01;;;;;;;0.57;0.57;;;;;;;-0.78;100.00;100109.31;5092420;28;20468;-56
2024/01/15 05:39:26;;;;;;;0.57;0.57;;;;;;;-0.72;100.00;100105.50;5092743;28;20012;-56
2024/01/15 05:41:51;;;;;;;0.50;0.50;;;;;;;-0.80;100.00;100109.22;5092794;28;20048;-56
2024/01/15 05:44:17;;;;;;;0.45;0.45;;;;;;;-0.81;100.00;100104.91;5092210;28;20038;-56
2024/01/15 05:46:42;;;;;;;0.50;0.50;;;;;;;-0.82;100.00;100098.09;5092891;28;20115;-56
2024/01/15 05:49:08;;;;;;;0.50;0.50;;;;;;;-0.86;100.00;100101.22;5092558;28;20122;-56
2024/01/15 05:51:33;;;;;;;0.60;0.60;;;;;;;-0.91;100.00;100100.06;5092609;28;20020;-56
2024/01/15 05:53:58;;;;;;;0.45;0.45;;;;;;;-0.97;100.00;100100.53;5092871;28;20383;-56
2024/01/15 05:56:24;;;;;;;0.50;0.50;;;;;;;-1.00;100.00;100097.81;5092302;28;20085;-56
2024/01/15 05:58:49;;;;;;;0.50;0.50;;;;;;;-1.05;100.00;100097.50;5093139;28;20020;-56
2024/01/15 06:01:15;;;;;;;0.60;0.60;;;;;;;-1.07;100.00;100096.56;5092333;28;20028;-56
2024/01/15 06:03:40;;;;;;;0.50;0.50;;;;;;;-1.11;100.00;100092.09;5092239;28;20035;-56
2024/01/15 06:06:05;;;;;;;0.50;0.50;;;;;;;-1.17;100.00;100090.00;5092652;28;20021;-56
2024/01/15 06:08:31;;;;;;;0.50;0.50;;;;;;;-1.20;100.00;100094.00;5092474;28;20024;-56
2024/01/15 06:10:56;;;;;;;0.50;0.50;;;;;;;-1.24;100.00;100097.09;5092036;28;20020;-56
2024/01/15 06:13:22;;;;;;;0.55;0.55;;;;;;;-1.24;100.00;100084.47;5092405;28;20035;-56
2024/01/15 06:15:47;;;;;;;0.47;0.47;;;;;;;-1.27;100.00;100079.22;5092643;28;20049;-56
2024/01/15 06:18:12;;;;;;;0.50;0.50;;;;;;;-1.27;100.00;100079.22;5091578;28;20475;-56
2024/01/15 06:20:39;;;;;;;0.57;0.57;;;;;;;-1.27;100.00;100081.75;5092817;28;20016;-56
2024/01/15 06:23:04;;;;;;;0.50;0.50;;;;;;;-1.27;100.00;100081.75;5092776;28;20094;-56
2024/01/15 06:25:29;;;;;;;0.50;0.50;;;;;;;-1.24;100.00;100075.25;5091527;28;20075;-56
2024/01/15 06:27:55;;;;;;;0.50;0.50;;;;;;;-1.19;100.00;100075.53;5092838;28;20095;-56
2024/01/15 06:30:20;;;;;;;0.52;0.52;;;;;;;-1.20;100.00;100073.78;5092319;28;20517;-58
2024/01/15 06:32:45;;;;;;;0.60;0.60;;;;;;;-1.19;100.00;100075.53;5092022;28;20031;-58
2024/01/15 06:35:11;;;;;;;0.50;0.50;;;;;;;-1.16;100.00;100078.28;5092404;28;20024;-59
2024/01/15 06:37:37;;;;;;;0.50;0.50;;;;;;;-1.14;100.00;100079.22;5092904;28;20394;-59
2024/01/15 06:40:03;;;;;;;0.60;0.60;;;;;;;-1.12;100.00;100086.91;5091042;28;20031;-59
2024/01/15 06:42:28;;;;;;;0.55;0.55;;;;;;;-1.10;100.00;100072.72;5092294;28;20028;-56
2024/01/15 06:44:53;;;;;;;0.60;0.60;;;;;;;-1.09;100.00;100066.88;5092482;28;20031;-56
2024/01/15 06:47:19;;;;;;;0.50;0.50;;;;;;;-1.10;100.00;100068.53;5091344;28;20028;-56
2024/01/15 06:49:44;;;;;;;0.50;0.50;;;;;;;-1.09;100.00;100074.47;5092350;28;20024;-56
2024/01/15 06:52:10;;;;;;;0.50;0.50;;;;;;;-1.08;100.00;100077.09;5091942;28;20103;-56
2024/01/15 06:54:35;;;;;;;0.50;0.50;;;;;;;-1.09;100.00;100082.06;5092909;28;20051;-56
2024/01/15 06:57:00;;;;;;;0.50;0.50;;;;;;;-1.08;100.00;100074.56;5096133;28;20024;-56
2024/01/15 06:59:26;;;;;;;0.60;0.60;;;;;;;-1.08;100.00;100081.28;5095695;28;20016;-56
2024/01/15 07:01:51;;;;;;;0.60;0.60;;;;;;;-1.09;100.00;100077.88;5095442;28;20074;-56
2024/01/15 07:04:16;;;;;;;0.50;0.50;;;;;;;-1.11;100.00;100073.50;5095883;28;20020;-56
2024/01/15 07:06:41;;;;;;;0.50;0.50;;;;;;;-1.12;100.00;100072.63;5095198;28;20497;-56
2024/01/15 07:09:08;;;;;;;0.55;0.55;;;;;;;-1.13;100.00;100075.94;5095871;28;20025;-56
2024/01/15 07:11:33;;;;;;;0.60;0.60;;;;;;;-1.16;100.00;100080.81;5095431;28;20024;-56
2024/01/15 07:13:58;;;;;;;0.57;0.57;;;;;;;-1.17;100.00;100084.09;5094890;28;20024;-56
2024/01/15 07:16:24;;;;;;;0.50;0.50;;;;;;;-1.20;100.00;100083.88;5095765;28;20066;-56
2024/01/15 07:18:49;;;;;;;0.60;0.60;;;;;;;-1.23;100.00;100076.09;5095552;28;20028;-56
2024/01/15 07:21:14;;;;;;;0.52;0.52;;;;;;;-1.27;100.00;100067.44;5094400;28;20149;-57
2024/01/15 07:23:40;;;;;;;0.60;0.60;;;;;;;-1.29;100.00;100068.13;5095611;28;20035;-57
2024/01/15 07:26:05;;;;;;;0.60;0.60;;;;;;;-1.32;100.00;100071.34;5095475;28;20024;-57
2024/01/15 07:28:31;;;;;;;0.50;0.50;;;;;;;-1.31;100.00;100084.88;5094469;28;20396;-57
2024/01/15 07:30:57;;;;;;;0.57;0.57;;;;;;;-1.31;100.00;100084.88;5095371;28;20036;-57
2024/01/15 07:33:22;;;;;;;0.55;0.55;;;;;;;-1.32;100.00;100083.97;5095275;28;20026;-57
2024/01/15 07:35:47;;;;;;;0.60;0.60;;;;;;;-1.31;100.00;100085.72;5094547;28;20393;-57
2024/01/15 07:38:13;;;;;;;0.50;0.50;;;;;;;-1.34;100.00;100088.94;5095038;28;20020;-57
2024/01/15 07:40:38;;;;;;;0.50;0.50;;;;;;;-1.30;100.00;100089.13;5095034;28;20118;-57
2024/01/15 07:43:04;;;;;;;0.50;0.50;;;;;;;-1.29;100.00;100084.19;5094588;28;20032;-57
2024/01/15 07:45:30;;;;;;;0.50;0.50;;;;;;;-1.25;100.00;100075.13;5094707;28;20104;-57
2024/01/15 07:47:55;;;;;;;0.50;0.50;;;;;;;-1.23;100.00;100084.56;5095187;28;20024;-57
2024/01/15 07:50:20;;;;;;;0.57;0.57;;;;;;;-1.22;100.00;100090.50;5093814;28;20020;-57
2024/01/15 07:52:46;;;;;;;0.50;0.50;;;;;;;-1.18;100.00;100097.50;5095039;28;20517;-57
2024/01/15 07:55:11;;;;;;;0.60;0.60;;;;;;;-1.16;100.00;100086.72;5094524;28;20481;-57
2024/01/15 07:57:36;;;;;;;0.50;0.50;;;;;;;-1.16;100.00;100091.78;5094040;28;20095;-57
2024/01/15 08:00:05;;;;;;;0.50;0.50;;;;;;;-1.14;100.00;100099.44;5094683;28;20502;-57
2024/01/15 08:02:31;;;;;;;0.50;0.50;;;;;;;-1.13;100.00;100096.16;5094623;28;20052;-57
2024/01/15 08:04:58;;;;;;;0.50;0.50;;;;;;;-1.12;100.00;100107.13;5093827;28;20031;-57
2024/01/15 08:07:24;;;;;;;0.57;0.57;;;;;;;-1.12;100.00;100118.13;5094437;28;20020;-57
2024/01/15 08:09:54;;;;;;;0.60;0.60;;;;;;;-1.07;100.00;100115.88;5094057;28;20029;-57
2024/01/15 08:12:19;;;;;;;0.50;0.50;;;;;;;-1.08;100.00;100125.16;5094297;28;20020;-57
2024/01/15 08:14:45;;;;;;;0.50;0.50;;;;;;;-1.05;100.00;100129.53;5094355;28;20016;-57
2024/01/15 08:17:10;;;;;;;0.60;0.60;;;;;;;-1.06;100.00;100125.22;5093618;28;20788;-57
2024/01/15 08:19:36;;;;;;;0.50;0.50;;;;;;;-1.07;100.00;100133.59;5094120;28;20524;-57
2024/01/15 08:22:01;;;;;;;0.50;0.50;;;;;;;-1.11;100.00;100130.00;5094354;28;20032;-57
2024/01/15 08:24:26;;;;;;;0.60;0.60;;;;;;;-1.19;100.00;100124.47;5093328;28;20020;-57
2024/01/15 08:26:52;;;;;;;0.60;0.60;;;;;;;-1.21;100.00;100120.09;5094176;28;20035;-57
2024/01/15 08:29:18;;;;;;;0.60;0.60;;;;;;;-1.23;100.00;100119.09;5093884;28;20031;-57
2024/01/15 08:31:44;;;;;;;0.50;0.50;;;;;;;-1.23;100.00;100119.97;5093307;28;20540;-57
2024/01/15 08:34:09;;;;;;;0.50;0.50;;;;;;;-1.22;100.00;100115.78;5093918;28;20020;-57
2024/01/15 08:36:36;;;;;;;0.60;0.60;;;;;;;-1.23;100.00;100124.16;5094201;28;20028;-57
2024/01/15 08:39:01;;;;;;;0.52;0.52;;;;;;;-1.23;100.00;100125.00;5093373;28;20047;-57
2024/01/15 08:41:26;;;;;;;0.60;0.60;;;;;;;-1.18;100.00;100117.75;5093523;28;20445;-57
2024/01/15 08:43:52;;;;;;;0.60;0.60;;;;;;;-1.16;100.00;100123.78;5093933;28;20034;-57
2024/01/15 08:46:18;;;;;;;0.47;0.47;;;;;;;-1.14;100.00;100116.28;5093022;28;20035;-57
2024/01/15 08:48:43;;;;;;;0.50;0.50;;;;;;;-1.13;100.00;100113.00;5093999;28;20020;-57
2024/01/15 08:51:08;;;;;;;0.40;0.40;;;;;;;-1.09;100.00;100123.38;5093890;28;20073;-57
2024/01/15 08:53:34;;;;;;;0.50;0.50;;;;;;;-1.10;100.00;100119.09;5092924;28;20035;-57
2024/01/15 08:55:59;;;;;;;0.60;0.60;;;;;;;-1.07;100.00;100113.34;5093792;28;20020;-57
2024/01/15 08:58:25;;;;;;;0.60;0.60;;;;;;;-1.03;100.00;100121.25;5093258;28;20042;-57
2024/01/15 09:00:51;;;;;;;0.47;0.47;;;;;;;-1.02;100.00;100112.00;5092728;28;20012;-57
2024/01/15 09:03:16;;;;;;;0.55;0.55;;;;;;;-1.01;100.00;100106.16;5092728;28;20028;-57
2024/01/15 09:05:42;;;;;;;0.50;0.50;;;;;;;-1.00;100.00;100107.94;5093137;28;20574;-57
2024/01/15 09:08:07;;;;;;;0.50;0.50;;;;;;;-1.00;100.00;100101.19;5092232;28;20027;-57
2024/01/15 09:10:33;;;;;;;0.60;0.60;;;;;;;-0.97;100.00;100109.78;5093257;28;20153;-57
2024/01/15 09:12:58;;;;;;;0.50;0.50;;;;;;;-0.95;100.00;100115.81;5093474;28;20477;-57
2024/01/15 09:15:24;;;;;;;0.50;0.50;;;;;;;-0.94;100.00;100113.38;5092632;28;20439;-57
2024/01/15 09:17:49;;;;;;;0.43;0.43;;;;;;;-0.94;100.00;100122.59;5092936;28;20019;-56
2024/01/15 09:20:15;;;;;;;0.60;0.60;;;;;;;-0.92;100.00;100123.59;5091340;28;20035;-57
2024/01/15 09:22:41;;;;;;;0.50;0.50;;;;;;;-0.92;100.00;100111.81;5093313;28;20054;-57
2024/01/15 09:25:08;;;;;;;0.50;0.50;;;;;;;-0.91;100.00;100113.56;5093085;28;20028;-56
2024/01/15 09:27:34;;;;;;;0.60;0.60;;;;;;;-0.91;100.00;100115.25;5092375;28;20047;-57
2024/01/15 09:29:59;;;;;;;0.60;0.60;;;;;;;-0.91;100.00;100113.56;5093060;28;20434;-57
2024/01/15 09:32:24;;;;;;;0.50;0.50;;;;;;;-0.89;100.00;100111.13;5092511;28;20024;-56
2024/01/15 09:34:50;;;;;;;0.52;0.52;;;;;;;-0.88;100.00;100108.72;5092503;28;20030;-57
2024/01/15 09:37:15;;;;;;;0.50;0.50;;;;;;;-0.87;100.00;100102.00;5092461;28;20027;-56
2024/01/15 09:39:41;;;;;;;0.50;0.50;;;;;;;-0.87;100.00;100120.56;5093051;28;20032;-57
2024/01/15 09:42:07;;;;;;;0.60;0.60;;;;;;;-0.86;100.00;100122.31;5091957;28;20039;-57
2024/01/15 09:44:32;;;;;;;0.50;0.50;;;;;;;-0.86;100.00;100124.00;5092831;28;20442;-57
2024/01/15 09:46:58;;;;;;;0.52;0.52;;;;;;;-0.82;100.00;100125.94;5092866;28;20472;-57
2024/01/15 09:49:24;;;;;;;0.50;0.50;;;;;;;-0.77;100.00;100142.28;5092142;28;20032;-57
2024/01/15 09:51:49;;;;;;;0.50;0.50;;;;;;;-0.81;100.00;100129.31;5092854;28;20048;-57
2024/01/15 09:54:17;;;;;;;0.57;0.57;;;;;;;-0.79;100.00;100138.75;5092550;28;20027;-57
2024/01/15 09:56:48;;;;;;;0.40;0.40;;;;;;;-0.79;100.00;100137.91;5091836;28;20525;-57
2024/01/15 09:59:18;;;;;;;0.50;0.50;;;;;;;-0.82;100.00;100143.66;5092366;28;20048;-57
2024/01/15 10:01:44;;;;;;;0.45;0.45;;;;;;;-0.84;100.00;100140.13;5092970;28;20031;-57
2024/01/15 10:04:13;;;;;;;0.60;0.60;;;;;;;-0.84;100.00;100140.13;5091780;28;20363;-57
2024/01/15 10:06:41;;;;;;;0.50;0.50;;;;;;;-0.77;100.00;100137.22;5092872;28;20028;-57
2024/01/15 10:09:07;;;;;;;0.57;0.57;;;;;;;-0.68;100.00;100145.38;5092400;28;20028;-57
2024/01/15 10:11:33;;;;;;;0.50;0.50;;;;;;;-0.64;100.00;100135.47;5091778;28;20043;-56
2024/01/15 10:13:58;;;;;;;0.50;0.50;;;;;;;-0.63;100.00;100134.66;5092431;28;20106;-57
2024/01/15 10:16:24;;;;;;;0.55;0.55;;;;;;;-0.59;100.00;100136.66;5091682;28;20032;-57
2024/01/15 10:18:49;;;;;;;0.50;0.50;;;;;;;-0.52;100.00;100138.75;5092290;28;20020;-57
2024/01/15 10:21:15;;;;;;;0.55;0.55;;;;;;;-0.38;100.00;100137.97;5092227;28;20497;-57
2024/01/15 10:23:41;;;;;;;0.50;0.50;;;;;;;-0.25;100.00;100133.66;5091531;28;20476;-57
2024/01/15 10:26:06;;;;;;;0.60;0.60;;;;;;;-0.12;100.00;100136.16;5092583;28;20054;-57
2024/01/15 10:28:32;;;;;;;0.40;0.40;;;;;;;-0.04;100.00;100142.56;5092264;28;20436;-56
2024/01/15 10:30:59;;;;;;;0.50;0.50;;;;;;;-0.01;100.00;100145.28;5095117;28;20102;-57
2024/01/15 10:33:27;;;;;;;0.43;0.43;;;;;;;-0.01;100.00;100146.94;5096078;28;20042;-57
2024/01/15 10:35:57;;;;;;;0.50;0.50;;;;;;;0.05;100.00;100143.91;5095028;28;20090;-57
2024/01/15 10:38:23;;;;;;;0.50;0.50;;;;;;;0.07;100.00;100139.81;5095116;28;20097;-57
2024/01/15 10:40:51;;;;;;;0.50;0.50;;;;;;;-0.01;100.00;100137.69;5096130;28;20411;-57
2024/01/15 10:43:17;;;;;;;0.50;0.50;;;;;;;-0.02;100.00;100138.44;5096223;28;20051;-57
2024/01/15 10:45:44;;;;;;;0.50;0.50;;;;;;;-0.09;100.00;100141.41;5095300;28;20060;-57
2024/01/15 10:48:10;;;;;;;0.40;0.40;;;;;;;-0.14;100.00;100142.78;5096069;28;20106;-57
2024/01/15 10:50:36;;;;;;;0.43;0.43;;;;;;;-0.21;100.00;100125.47;5096164;28;20103;-57
2024/01/15 10:53:02;;;;;;;0.40;0.40;;;;;;;-0.27;100.00;100136.09;5095280;28;20369;-57
2024/01/15 10:55:29;;;;;;;0.40;0.40;;;;;;;-0.22;100.00;100133.84;5095926;28;20048;-57
2024/01/15 10:57:56;;;;;;;0.43;0.43;;;;;;;-0.15;100.00;100138.50;5095779;28;20480;-57
2024/01/15 11:00:21;;;;;;;0.40;0.40;;;;;;;-0.05;100.00;100138.28;5095015;28;20020;-57
2024/01/15 11:02:47;;;;;;;0.50;0.50;;;;;;;0.08;100.00;100137.38;5095972;28;20448;-57
2024/01/15 11:05:12;;;;;;;0.60;0.60;;;;;;;0.06;100.00;100130.47;5095556;28;20028;-57
2024/01/15 11:07:40;;;;;;;0.45;0.45;;;;;;;0.20;100.00;100133.81;5095090;28;20495;-57
2024/01/15 11:10:08;;;;;;;0.40;0.40;;;;;;;0.21;100.00;100121.22;5095938;28;20141;-57